createdAt,value
2023-05-05T15:55:52.094Z,100526.16
2023-05-05T15:58:55.478Z,100526.16
2023-05-05T16:01:57.956Z,100523.97
2023-05-05T16:05:00.918Z,100525.47
2023-05-05T16:08:09.594Z,100519.41
2023-05-05T16:11:12.320Z,100511.50
2023-05-05T16:14:14.705Z,100519.53
2023-05-05T16:17:17.455Z,100512.09
2023-05-05T16:20:19.911Z,100515.72
2023-05-05T16:23:22.681Z,100513.56
2023-05-05T16:26:25.250Z,100505.88
2023-05-05T16:29:28.227Z,100507.75
2023-05-05T16:32:30.709Z,100512.47
2023-05-05T16:35:33.736Z,100515.22
2023-05-05T16:38:36.121Z,100506.44
2023-05-05T16:41:39.051Z,100507.31
2023-05-05T16:44:41.759Z,100510.06
2023-05-05T16:47:44.423Z,100502.97
2023-05-05T16:50:46.990Z,100515.91
2023-05-05T16:53:49.928Z,100515.66
2023-05-05T16:56:52.420Z,100509.13
2023-05-05T16:59:56.386Z,100512.41
2023-05-05T17:03:01.630Z,100514.59
2023-05-05T17:06:04.777Z,100520.38
2023-05-05T17:09:07.224Z,100513.00
2023-05-05T17:12:09.925Z,100501.22
2023-05-05T17:15:15.418Z,100510.84
2023-05-05T17:18:21.222Z,100520.75
2023-05-05T17:21:23.843Z,100507.59
2023-05-05T17:24:26.705Z,100506.78
2023-05-05T17:27:29.121Z,100507.59
2023-05-05T17:30:32.475Z,100492.50
2023-05-05T17:33:34.917Z,100507.63
2023-05-05T17:36:37.742Z,100506.25
2023-05-05T17:39:40.324Z,100506.78
2023-05-05T17:42:43.087Z,100512.00
2023-05-05T17:45:46.942Z,100518.31
2023-05-05T17:48:49.959Z,100512.00
2023-05-05T17:51:52.692Z,100505.41
2023-05-05T17:54:55.766Z,100516.13
2023-05-05T17:57:59.101Z,100513.94
2023-05-05T18:01:02.168Z,100523.53
2023-05-05T18:04:07.389Z,100523.53
2023-05-05T18:07:11.936Z,100520.78
2023-05-05T18:10:14.664Z,100523.75
2023-05-05T18:13:17.109Z,100505.91
2023-05-05T18:16:20.075Z,100525.37
2023-05-05T18:19:24.042Z,100517.12
2023-05-05T18:22:27.015Z,100522.59
2023-05-05T18:25:30.123Z,100532.13
2023-05-05T18:28:33.422Z,100537.31
2023-05-05T18:31:35.989Z,100543.81
2023-05-05T18:34:38.698Z,100529.19
2023-05-05T18:37:42.319Z,100528.03
2023-05-05T18:40:45.417Z,100538.16
2023-05-05T18:43:47.793Z,100542.19
2023-05-05T18:46:51.591Z,100547.88
2023-05-05T18:49:54.023Z,100548.63
2023-05-05T18:52:56.852Z,100546.09
2023-05-05T18:55:59.850Z,100538.03
2023-05-05T18:59:02.628Z,100557.72
2023-05-05T19:02:05.276Z,100556.06
2023-05-05T19:05:08.821Z,100567.47
2023-05-05T19:08:11.707Z,100555.94
2023-05-05T19:11:15.225Z,100568.22
2023-05-05T19:14:18.006Z,100565.38
2023-05-05T19:17:21.057Z,100565.31
2023-05-05T19:20:23.539Z,100556.97
2023-05-05T19:23:27.163Z,100562.44
2023-05-05T19:26:29.710Z,100557.50
2023-05-05T19:29:32.613Z,100559.34
2023-05-05T19:32:35.310Z,100569.06
2023-05-05T19:35:38.093Z,100569.53
2023-05-05T19:38:44.630Z,100560.69
2023-05-05T19:41:47.536Z,100566.16
2023-05-05T19:44:49.952Z,100558.94
2023-05-05T19:47:52.782Z,100566.31
2023-05-05T19:50:55.487Z,100566.53
2023-05-05T19:53:59.549Z,100559.13
2023-05-05T19:57:02.110Z,100551.69
2023-05-05T20:00:06.148Z,100566.50
2023-05-05T20:03:09.777Z,100562.66
2023-05-05T20:06:12.231Z,100563.44
2023-05-05T20:09:15.435Z,100564.03
2023-05-05T20:12:19.862Z,100556.53
2023-05-05T20:15:22.650Z,100559.28
2023-05-05T20:18:25.139Z,100553.91
2023-05-05T20:21:27.981Z,100564.09
2023-05-05T20:24:30.572Z,100555.69
2023-05-05T20:30:35.883Z,100562.87
2023-05-05T20:33:38.794Z,100563.63
2023-05-05T20:36:41.165Z,100550.66
2023-05-05T20:39:44.048Z,100561.19
2023-05-05T20:42:47.445Z,100553.50
2023-05-05T20:45:50.474Z,100553.41
2023-05-05T20:48:52.913Z,100561.59
2023-05-05T20:51:55.913Z,100544.03
2023-05-05T20:54:58.322Z,100562.06
2023-05-05T20:58:01.252Z,100550.13
2023-05-05T21:01:03.717Z,100562.91
2023-05-05T21:04:06.468Z,100543.91
2023-05-05T21:07:08.989Z,100559.28
2023-05-05T21:10:11.877Z,100553.47
2023-05-05T21:13:14.580Z,100553.06
2023-05-05T21:16:17.446Z,100548.91
2023-05-05T21:19:19.809Z,100552.88
2023-05-05T21:22:22.592Z,100532.66
2023-05-05T21:25:25.411Z,100538.84
2023-05-05T21:28:28.166Z,100549.72
2023-05-05T21:31:30.752Z,100535.50
2023-05-05T21:34:33.936Z,100551.47
2023-05-05T21:37:39.743Z,100541.56
2023-05-05T21:40:42.740Z,100524.69
2023-05-05T21:43:45.203Z,100536.59
2023-05-05T21:46:48.142Z,100528.44
2023-05-05T21:49:51.021Z,100531.16
2023-05-05T21:52:53.792Z,100527.88
2023-05-05T21:55:56.425Z,100523.97
2023-05-05T21:58:59.263Z,100524.22
2023-05-05T22:02:01.811Z,100503.03
2023-05-05T22:05:04.942Z,100514.72
2023-05-05T22:08:08.850Z,100517.59
2023-05-05T22:11:11.888Z,100524.44
2023-05-05T22:14:15.496Z,100518.31
2023-05-05T22:17:18.274Z,100512.41
2023-05-05T22:20:21.690Z,100527.88
2023-05-05T22:23:24.414Z,100526.94
2023-05-05T22:26:26.781Z,100518.06
2023-05-05T22:29:29.598Z,100528.25
2023-05-05T22:32:32.490Z,100528.25
2023-05-05T22:35:35.470Z,100531.41
2023-05-05T22:38:38.131Z,100535.66
2023-05-05T22:41:41.143Z,100539.56
2023-05-05T22:44:43.632Z,100546.16
2023-05-05T22:47:46.539Z,100538.28
2023-05-05T22:50:49.039Z,100547.97
2023-05-05T22:53:51.791Z,100549.81
2023-05-05T22:56:54.194Z,100530.56
2023-05-05T22:59:56.953Z,100546.53
2023-05-05T23:02:59.417Z,100544.19
2023-05-05T23:06:03.104Z,100544.25
2023-05-05T23:09:05.603Z,100545.78
2023-05-05T23:12:08.461Z,100540.78
2023-05-05T23:15:11.531Z,100541.00
2023-05-05T23:18:14.517Z,100535.19
2023-05-05T23:21:17.101Z,100532.09
2023-05-05T23:24:20.497Z,100550.75
2023-05-05T23:27:23.800Z,100540.12
2023-05-05T23:30:26.854Z,100534.53
2023-05-05T23:33:29.409Z,100535.63
2023-05-05T23:36:32.129Z,100523.31
2023-05-05T23:39:34.825Z,100527.47
2023-05-05T23:42:37.622Z,100533.34
2023-05-05T23:45:40.549Z,100515.34
2023-05-05T23:48:43.373Z,100531.78
2023-05-05T23:51:46.102Z,100517.09
2023-05-05T23:54:48.924Z,100527.94
2023-05-05T23:57:53.109Z,100537.50
